Time;durP1;ratioP1;P1;durP2;ratioP2;P2;SDS_P1;SDS_P2;PMS_P1;PMS_P2;Temp;Humidity;BMP_temperature;BMP_pressure;BME280_temperature;BME280_humidity;BME280_pressure;Samples;Min_cycle;Max_cycle;Signal;HPM_P1;HPM_P2
2022/01/03 00:01:33;;;;;;;13.10;6.20;;;;;;;-7.28;100.00;99806.72;1467463;94;21168;-69
2022/01/03 00:03:59;;;;;;;13.30;5.87;;;;;;;-7.27;100.00;99797.90;1535390;92;21039;-68
2022/01/03 00:06:26;;;;;;;16.17;6.30;;;;;;;-7.26;100.00;99793.48;1545240;92;21567;-69
2022/01/03 00:08:54;;;;;;;14.03;6.10;;;;;;;-7.23;100.00;99788.58;1556490;92;21594;-70
2022/01/03 00:11:23;;;;;;;15.80;6.47;;;;;;;-7.24;100.00;99791.67;1523528;94;21067;-70
2022/01/03 00:13:52;;;;;;;15.93;5.90;;;;;;;-7.24;100.00;99790.36;1506316;94;21560;-69
2022/01/03 00:16:20;;;;;;;17.07;6.00;;;;;;;-7.23;100.00;99786.80;1533243;93;21189;-70
2022/01/03 00:18:53;;;;;;;12.87;5.83;;;;;;;-7.21;100.00;99785.42;1542819;93;21128;-69
2022/01/03 00:21:23;;;;;;;13.43;5.72;;;;;;;-7.21;100.00;99782.80;1543048;93;21117;-70
2022/01/03 00:23:59;;;;;;;15.83;6.23;;;;;;;-7.21;100.00;99771.81;1537650;91;21624;-70
2022/01/03 00:26:27;;;;;;;13.27;5.93;;;;;;;-7.18;100.00;99773.48;1485316;95;21107;-69
2022/01/03 00:28:59;;;;;;;9.93;4.97;;;;;;;-7.18;100.00;99767.75;1518770;92;21077;-70
2022/01/03 00:31:36;;;;;;;7.70;4.57;;;;;;;-7.15;100.00;99769.38;1518652;94;21090;-68
2022/01/03 00:34:07;;;;;;;11.40;4.53;;;;;;;-7.13;100.00;99761.84;1511587;94;21074;-70
2022/01/03 00:36:35;;;;;;;13.33;4.80;;;;;;;-7.08;100.00;99755.09;1530521;94;21135;-69
2022/01/03 00:39:07;;;;;;;9.93;4.87;;;;;;;-7.04;100.00;99756.65;1541351;93;21050;-70
2022/01/03 00:41:39;;;;;;;10.60;4.78;;;;;;;-6.99;100.00;99748.55;1541265;92;21078;-71
2022/01/03 00:44:07;;;;;;;7.40;3.90;;;;;;;-6.95;100.00;99747.52;1540866;91;21062;-69
2022/01/03 00:46:34;;;;;;;9.57;4.33;;;;;;;-6.89;100.00;99735.39;1602227;89;21158;-70
2022/01/03 00:49:03;;;;;;;8.53;4.40;;;;;;;-6.85;100.00;99731.73;1627376;88;21035;-70
2022/01/03 00:51:32;;;;;;;9.70;4.73;;;;;;;-6.81;100.00;99720.61;1606057;88;21539;-68
2022/01/03 00:53:58;;;;;;;9.97;4.97;;;;;;;-6.77;100.00;99712.97;1605803;88;21026;-69
2022/01/03 00:56:43;;;;;;;11.03;5.50;;;;;;;-6.74;100.00;99703.63;1652466;85;21593;-69
2022/01/03 00:59:17;;;;;;;10.43;5.37;;;;;;;-6.73;100.00;99692.17;1655747;86;21088;-69
2022/01/03 01:01:46;;;;;;;15.50;6.07;;;;;;;-6.69;100.00;99685.41;1658774;85;21063;-69
2022/01/03 01:04:14;;;;;;;11.97;5.33;;;;;;;-6.64;100.00;99689.59;1674090;86;21027;-70
2022/01/03 01:06:43;;;;;;;10.63;4.57;;;;;;;-6.60;100.00;99674.08;1676452;85;21739;-69
2022/01/03 01:09:12;;;;;;;11.00;5.00;;;;;;;-6.53;100.00;99674.17;1677427;85;21042;-69
2022/01/03 01:11:44;;;;;;;8.10;4.70;;;;;;;-6.50;100.00;99668.31;1655322;85;21074;-69
2022/01/03 01:14:14;;;;;;;9.70;4.80;;;;;;;-6.45;100.00;99669.39;1655659;85;21038;-70
2022/01/03 01:16:42;;;;;;;9.93;4.97;;;;;;;-6.44;100.00;99667.16;1677832;85;21519;-69
2022/01/03 01:19:10;;;;;;;9.20;5.23;;;;;;;-6.41;100.00;99652.99;1678184;85;20983;-69
2022/01/03 01:21:37;;;;;;;11.27;5.57;;;;;;;-6.39;100.00;99645.44;1655239;85;21046;-70
2022/01/03 01:24:06;;;;;;;11.40;5.70;;;;;;;-6.39;100.00;99645.88;1687136;85;21073;-70
2022/01/03 01:29:18;;;;;;;14.00;6.27;;;;;;;-6.34;100.00;99640.81;1749998;81;21469;-69
2022/01/03 01:31:50;;;;;;;13.80;6.70;;;;;;;-6.32;100.00;99620.97;1749490;82;21024;-70
2022/01/03 01:34:26;;;;;;;;;;;;;;;-6.26;100.00;99618.05;1657325;85;21014;-71
2022/01/03 01:36:55;;;;;;;16.30;6.73;;;;;;;-6.24;100.00;99604.83;1684609;85;20185;-71
2022/01/03 01:39:26;;;;;;;15.40;5.97;;;;;;;-6.20;100.00;99615.58;1661968;85;21030;-69
2022/01/03 01:41:57;;;;;;;13.00;5.83;;;;;;;-6.17;100.00;99604.91;1684775;85;21026;-69
2022/01/03 01:44:24;;;;;;;14.40;6.47;;;;;;;-6.12;100.00;99596.33;1684767;85;21546;-69
2022/01/03 01:46:55;;;;;;;12.80;5.97;;;;;;;-6.08;100.00;99587.81;1684623;85;21539;-69
2022/01/03 01:49:26;;;;;;;13.53;5.77;;;;;;;-6.04;100.00;99583.61;1684760;85;21583;-69
2022/01/03 01:52:00;;;;;;;12.58;5.72;;;;;;;-5.98;100.00;99574.11;1681603;85;21054;-70
2022/01/03 01:54:33;;;;;;;12.13;5.33;;;;;;;-5.94;100.00;99572.13;1684722;85;21026;-68
2022/01/03 01:57:17;;;;;;;11.00;5.03;;;;;;;-5.88;100.00;99562.59;1691593;85;21045;-69
2022/01/03 02:00:06;;;;;;;11.63;4.63;;;;;;;-5.84;100.00;99556.70;1688230;85;21021;-70
2022/01/03 02:02:52;;;;;;;9.97;5.00;;;;;;;-5.82;100.00;99557.02;1687370;85;21090;-69
2022/01/03 02:05:44;;;;;;;9.57;4.83;;;;;;;-5.77;100.00;99540.97;1674025;86;21057;-71
2022/01/03 02:08:16;;;;;;;8.67;4.80;;;;;;;-5.73;100.00;99537.27;1621482;88;21094;-69
2022/01/03 02:11:00;;;;;;;10.97;5.33;;;;;;;-5.70;100.00;99532.28;1593095;90;21017;-68
2022/01/03 02:13:27;;;;;;;10.20;4.67;;;;;;;-5.66;100.00;99525.95;1593198;90;21593;-68
2022/01/03 02:18:26;;;;;;;10.33;4.73;;;;;;;-5.62;100.00;99501.97;1543439;92;21542;-68
2022/01/03 02:20:53;;;;;;;9.70;4.87;;;;;;;-5.58;100.00;99489.48;1543365;93;21082;-68
2022/01/03 02:23:21;;;;;;;13.07;5.30;;;;;;;-5.57;100.00;99489.41;1520959;94;21147;-69
2022/01/03 02:25:48;;;;;;;9.57;5.00;;;;;;;-5.54;100.00;99482.66;1548736;93;21070;-69
2022/01/03 02:28:20;;;;;;;10.60;5.00;;;;;;;-5.51;100.00;99475.52;1534368;93;21125;-69
2022/01/03 02:30:44;;;;;;;11.70;5.10;;;;;;;-5.48;100.00;99466.15;1532746;93;21102;-69
2022/01/03 02:33:12;;;;;;;14.67;5.10;;;;;;;-5.47;100.00;99464.75;1529166;94;21103;-69
2022/01/03 02:35:40;;;;;;;13.13;5.43;;;;;;;-5.46;100.00;99459.84;1570209;91;21109;-68
2022/01/03 02:38:09;;;;;;;13.57;5.70;;;;;;;-5.45;100.00;99442.24;1570358;91;21094;-70
2022/01/03 02:40:38;;;;;;;12.60;5.40;;;;;;;-5.42;100.00;99442.08;1570557;91;21117;-68
2022/01/03 02:43:04;;;;;;;13.17;5.97;;;;;;;-5.42;100.00;99431.09;1570311;91;21165;-68
2022/01/03 02:45:32;;;;;;;15.50;6.67;;;;;;;-5.40;100.00;99417.36;1570313;91;21594;-69
2022/01/03 02:48:03;;;;;;;13.60;6.40;;;;;;;-5.38;100.00;99406.27;1570162;91;21062;-68
2022/01/03 02:50:31;;;;;;;14.60;6.17;;;;;;;-5.37;100.00;99396.56;1570220;91;21097;-69
2022/01/03 02:52:58;;;;;;;20.77;7.97;;;;;;;-5.35;100.00;99394.24;1570071;91;21133;-68
2022/01/03 02:55:26;;;;;;;48.93;13.60;;;;;;;-5.34;100.00;99372.69;1571388;90;21102;-69
2022/01/03 02:57:58;;;;;;;21.87;7.23;;;;;;;-5.31;100.00;99366.38;1572166;91;21039;-68
2022/01/03 03:00:29;;;;;;;12.40;5.72;;;;;;;-5.29;100.00;99364.50;1598842;89;21137;-71
2022/01/03 03:02:56;;;;;;;14.40;6.17;;;;;;;-5.30;100.00;99341.25;1622049;88;20962;-70
2022/01/03 03:05:24;;;;;;;15.17;7.07;;;;;;;-5.30;100.00;99326.77;1628625;88;21041;-67
2022/01/03 03:07:50;;;;;;;22.83;9.20;;;;;;;-5.28;100.00;99305.59;1627407;88;21005;-69
2022/01/03 03:10:20;;;;;;;25.43;8.30;;;;;;;-5.27;100.00;99307.30;1618743;89;21137;-70
2022/01/03 03:12:48;;;;;;;18.53;6.97;;;;;;;-5.27;100.00;99277.00;1619084;89;21488;-69
2022/01/03 03:15:16;;;;;;;19.67;7.90;;;;;;;-5.30;100.00;99267.47;1661024;84;21048;-71
2022/01/03 03:17:44;;;;;;;15.03;6.30;;;;;;;-5.30;100.00;99241.59;1701160;84;21042;-70
2022/01/03 03:20:15;;;;;;;15.30;6.40;;;;;;;-5.29;100.00;99239.31;1683420;85;21495;-69
2022/01/03 03:22:42;;;;;;;14.53;5.97;;;;;;;-5.31;100.00;99226.25;1670959;85;21050;-67
2022/01/03 03:25:51;;;;;;;13.03;6.30;;;;;;;-5.28;100.00;99213.35;1692941;85;21077;-68
2022/01/03 03:28:19;;;;;;;13.30;5.40;;;;;;;-5.26;100.00;99207.52;1693133;85;21510;-68
2022/01/03 03:30:48;;;;;;;12.40;5.70;;;;;;;-5.24;100.00;99181.91;1693014;85;21053;-69
2022/01/03 03:33:22;;;;;;;12.13;5.40;;;;;;;-5.22;100.00;99182.21;1689068;85;21036;-69
2022/01/03 03:35:54;;;;;;;12.07;5.30;;;;;;;-5.19;100.00;99160.08;1693097;84;21105;-68
2022/01/03 03:38:25;;;;;;;11.30;5.63;;;;;;;-5.13;100.00;99145.23;1663820;85;21001;-69
2022/01/03 03:40:54;;;;;;;11.63;5.80;;;;;;;-5.08;100.00;99144.48;1692867;85;21026;-69
2022/01/03 03:43:21;;;;;;;10.43;5.67;;;;;;;-5.07;100.00;99149.27;1663600;85;21053;-70
2022/01/03 03:45:50;;;;;;;11.83;5.30;;;;;;;-5.01;100.00;99126.47;1692780;84;21014;-69
2022/01/03 03:48:18;;;;;;;11.57;5.40;;;;;;;-4.96;100.00;99120.44;1693000;84;21002;-68
2022/01/03 03:50:46;;;;;;;14.70;6.00;;;;;;;-4.93;100.00;99095.69;1693152;85;21526;-70
2022/01/03 03:53:14;;;;;;;11.23;5.50;;;;;;;-4.89;100.00;99083.52;1693214;85;21037;-69
2022/01/03 03:55:43;;;;;;;10.53;5.10;;;;;;;-4.86;100.00;99076.73;1692970;85;21069;-69
2022/01/03 03:58:13;;;;;;;12.27;5.50;;;;;;;-4.83;100.00;99063.36;1693417;84;20985;-70
2022/01/03 04:00:39;;;;;;;14.93;5.60;;;;;;;-4.80;100.00;99047.80;1693246;84;21066;-69
2022/01/03 04:03:06;;;;;;;12.23;6.50;;;;;;;-4.79;100.00;99031.05;1671252;84;20995;-69
2022/01/03 04:05:33;;;;;;;11.50;5.50;;;;;;;-4.79;100.00;99017.37;1710551;84;21532;-70
2022/01/03 04:08:01;;;;;;;8.87;5.30;;;;;;;-4.78;100.00;98997.98;1673080;85;21094;-68
2022/01/03 04:10:28;;;;;;;10.93;5.77;;;;;;;-4.77;100.00;98987.78;1676657;84;21047;-69
2022/01/03 04:12:56;;;;;;;9.40;5.27;;;;;;;-4.75;100.00;98980.27;1676657;86;21054;-69
2022/01/03 04:15:23;;;;;;;9.87;5.13;;;;;;;-4.75;100.00;98970.55;1676664;86;21050;-70
2022/01/03 04:17:51;;;;;;;10.87;5.37;;;;;;;-4.73;100.00;98948.87;1677147;86;21039;-68
2022/01/03 04:20:19;;;;;;;10.70;5.33;;;;;;;-4.74;100.00;98955.59;1676405;85;21035;-70
2022/01/03 04:22:47;;;;;;;11.60;5.70;;;;;;;-4.73;100.00;98951.98;1676975;86;21027;-71
2022/01/03 04:25:15;;;;;;;11.23;5.50;;;;;;;-4.73;100.00;98933.04;1676803;86;21043;-70
2022/01/03 04:27:43;;;;;;;8.73;5.17;;;;;;;-4.70;100.00;98930.21;1676668;86;21058;-68
2022/01/03 04:30:11;;;;;;;7.97;4.80;;;;;;;-4.68;100.00;98926.98;1676930;86;21015;-70
2022/01/03 04:32:39;;;;;;;9.97;4.77;;;;;;;-4.68;100.00;98907.20;1676804;85;21031;-70
2022/01/03 04:35:07;;;;;;;13.37;6.00;;;;;;;-4.66;100.00;98903.98;1676781;85;21035;-69
2022/01/03 04:37:36;;;;;;;10.00;5.80;;;;;;;-4.64;100.00;98891.56;1676560;85;21031;-70
2022/01/03 04:40:05;;;;;;;13.47;6.20;;;;;;;-4.59;100.00;98892.56;1677265;86;21035;-69
2022/01/03 04:42:32;;;;;;;11.73;6.13;;;;;;;-4.56;100.00;98859.38;1677328;86;21063;-70
2022/01/03 04:45:01;;;;;;;11.00;5.80;;;;;;;-4.51;100.00;98870.95;1676551;86;21078;-68
2022/01/03 04:47:28;;;;;;;10.73;5.63;;;;;;;-4.49;100.00;98859.81;1676928;86;20996;-69
2022/01/03 04:49:55;;;;;;;10.97;5.50;;;;;;;-4.46;100.00;98868.37;1676830;85;21052;-69
2022/01/03 04:52:23;;;;;;;20.50;8.27;;;;;;;-4.45;100.00;98829.13;1676639;86;21091;-69
2022/01/03 04:54:50;;;;;;;15.10;6.77;;;;;;;-4.42;100.00;98801.22;1676679;86;21051;-68
2022/01/03 04:57:17;;;;;;;12.87;6.30;;;;;;;-4.39;100.00;98766.71;1676724;86;20988;-69
2022/01/03 04:59:45;;;;;;;12.40;5.60;;;;;;;-4.37;100.00;98742.86;1677014;86;21023;-69
2022/01/03 05:02:12;;;;;;;10.83;5.73;;;;;;;-4.32;100.00;98734.59;1650455;84;21535;-68
2022/01/03 05:04:40;;;;;;;11.27;5.90;;;;;;;-4.31;100.00;98713.37;1706658;83;21002;-69
2022/01/03 05:07:07;;;;;;;13.43;5.70;;;;;;;-4.28;100.00;98689.41;1706403;83;21019;-69
2022/01/03 05:09:35;;;;;;;11.53;5.40;;;;;;;-4.25;100.00;98667.22;1679088;84;21150;-71
2022/01/03 05:12:04;;;;;;;11.33;5.30;;;;;;;-4.23;100.00;98610.73;1706225;84;21042;-69
2022/01/03 05:14:31;;;;;;;12.10;5.40;;;;;;;-4.18;100.00;98599.82;1678647;84;20978;-69
2022/01/03 05:16:57;;;;;;;11.60;5.87;;;;;;;-4.14;100.00;98566.12;1678853;84;21014;-71
2022/01/03 05:19:27;;;;;;;15.33;6.80;;;;;;;-4.10;100.00;97933.55;1706653;83;21041;-69
2022/01/03 05:21:54;;;;;;;13.17;6.33;;;;;;;-4.05;100.00;97940.59;1678883;84;21534;-71
2022/01/03 05:24:21;;;;;;;14.33;7.07;;;;;;;-3.99;100.00;97937.91;1705066;83;21023;-70
2022/01/03 05:26:50;;;;;;;14.87;6.87;;;;;;;-3.93;100.00;97921.55;1680562;84;21061;-71
2022/01/03 05:29:17;;;;;;;13.40;6.40;;;;;;;-3.86;100.00;97924.02;1700603;84;21520;-71
2022/01/03 05:31:46;;;;;;;10.47;5.80;;;;;;;-3.79;100.00;97912.42;1700723;83;21584;-71
2022/01/03 05:34:14;;;;;;;12.27;6.03;;;;;;;-3.71;100.00;97907.32;1700519;84;21026;-71
2022/01/03 05:36:41;;;;;;;16.77;6.93;;;;;;;-3.65;100.00;97896.70;1700570;83;21105;-68
2022/01/03 05:39:08;;;;;;;16.03;7.03;;;;;;;-3.58;100.00;97893.88;1700844;84;21086;-71
2022/01/03 05:41:35;;;;;;;13.83;5.80;;;;;;;-3.54;100.00;97899.27;1700604;83;21046;-74
2022/01/03 05:44:04;;;;;;;11.63;5.67;;;;;;;-3.51;100.00;97892.36;1700321;84;21101;-69
2022/01/03 05:46:31;;;;;;;11.70;6.00;;;;;;;-3.48;100.00;97884.67;1700371;84;21022;-71
2022/01/03 05:48:58;;;;;;;12.53;5.73;;;;;;;-3.45;100.00;97891.02;1700350;84;21070;-69
2022/01/03 05:51:25;;;;;;;12.30;6.10;;;;;;;-3.41;100.00;97883.65;1700673;84;21022;-71
2022/01/03 05:53:53;;;;;;;11.93;6.23;;;;;;;-3.38;100.00;97887.32;1700685;84;21006;-71
2022/01/03 05:56:21;;;;;;;11.77;5.80;;;;;;;-3.34;100.00;97884.77;1700531;84;21507;-71
2022/01/03 05:58:50;;;;;;;12.57;6.53;;;;;;;-3.28;100.00;97885.53;1700596;84;21093;-70
2022/01/03 06:01:17;;;;;;;11.37;6.43;;;;;;;-3.26;100.00;97869.05;1700920;84;21010;-68
2022/01/03 06:03:44;;;;;;;11.43;5.93;;;;;;;-3.20;100.00;97876.94;1691865;84;21068;-69
2022/01/03 06:08:40;;;;;;;26.37;8.90;;;;;;;-3.12;100.00;97860.72;1684756;84;20995;-70
2022/01/03 06:11:08;;;;;;;12.10;5.63;;;;;;;-3.09;100.00;97843.76;1683055;85;21108;-70
2022/01/03 06:13:37;;;;;;;16.00;7.00;;;;;;;-3.04;100.00;97852.11;1690979;84;21050;-70
2022/01/03 06:16:05;;;;;;;15.67;7.20;;;;;;;-2.99;100.00;97828.73;1700554;84;21089;-70
2022/01/03 06:18:34;;;;;;;23.87;9.57;;;;;;;-2.95;100.00;97842.52;1680747;84;21027;-70
2022/01/03 06:21:03;;;;;;;14.87;6.77;;;;;;;-2.90;100.00;97825.73;1700438;84;21086;-71
2022/01/03 06:23:32;;;;;;;16.43;7.30;;;;;;;-2.87;100.00;97822.33;1697794;84;21031;-69
2022/01/03 06:26:00;;;;;;;12.00;6.27;;;;;;;-2.84;100.00;97817.23;1700587;82;21497;-69
2022/01/03 06:28:32;;;;;;;14.30;6.50;;;;;;;-2.79;100.00;97804.42;1643897;86;21051;-68
2022/01/03 06:30:59;;;;;;;12.93;6.40;;;;;;;-2.71;100.00;97805.87;1643951;87;21023;-71
2022/01/03 06:33:26;;;;;;;13.17;6.60;;;;;;;-2.67;100.00;97791.37;1643867;87;21107;-69
2022/01/03 06:35:54;;;;;;;15.73;6.53;;;;;;;-2.59;100.00;97772.13;1643865;87;21048;-69
2022/01/03 06:38:21;;;;;;;10.60;5.70;;;;;;;-2.50;100.00;97766.00;1643997;87;21035;-69
2022/01/03 06:40:48;;;;;;;10.70;5.80;;;;;;;-2.41;100.00;97747.06;1644436;87;21066;-70
2022/01/03 06:43:15;;;;;;;10.77;6.70;;;;;;;-2.37;100.00;97763.52;1644581;87;21046;-70
2022/01/03 06:45:42;;;;;;;12.00;6.30;;;;;;;-2.35;100.00;97770.33;1643728;87;21664;-69
2022/01/03 06:48:10;;;;;;;11.37;6.90;;;;;;;-2.32;100.00;97764.75;1643916;87;21086;-70
2022/01/03 06:50:38;;;;;;;9.93;5.83;;;;;;;-2.30;100.00;97762.78;1643846;87;21145;-69
2022/01/03 06:53:07;;;;;;;9.90;5.83;;;;;;;-2.29;100.00;97749.88;1644012;87;21560;-69
2022/01/03 06:55:35;;;;;;;11.30;5.90;;;;;;;-2.28;100.00;97740.14;1643915;87;21059;-69
2022/01/03 06:58:03;;;;;;;8.50;5.70;;;;;;;-2.29;100.00;97733.99;1643710;87;21115;-71
2022/01/03 07:00:30;;;;;;;12.53;6.33;;;;;;;-2.26;100.00;97726.27;1643961;87;21023;-69
2022/01/03 07:02:59;;;;;;;8.77;5.03;;;;;;;-2.26;100.00;97721.47;1643397;87;21063;-70
2022/01/03 07:05:26;;;;;;;7.70;4.87;;;;;;;-2.24;100.00;97727.45;1661981;84;20987;-70
2022/01/03 07:07:53;;;;;;;12.33;6.13;;;;;;;-2.22;100.00;97699.83;1702460;84;21038;-70
2022/01/03 07:10:23;;;;;;;9.03;5.03;;;;;;;-2.18;100.00;97691.95;1681319;84;21073;-71
2022/01/03 07:12:52;;;;;;;11.73;5.30;;;;;;;-2.14;100.00;97691.17;1700579;84;21003;-71
2022/01/03 07:20:53;;;;;;;8.87;5.40;;;;;;;-2.03;100.00;97678.20;1701209;84;21030;-70
2022/01/03 07:23:20;;;;;;;11.80;5.50;;;;;;;-2.00;100.00;97657.55;1680761;84;20991;-71
2022/01/03 07:25:47;;;;;;;6.87;5.10;;;;;;;-1.94;100.00;97668.03;1679448;84;21042;-70
2022/01/03 07:28:15;;;;;;;7.60;4.73;;;;;;;-1.91;100.00;97646.05;1678801;84;21011;-71
2022/01/03 07:30:42;;;;;;;11.33;4.87;;;;;;;-1.83;100.00;97641.31;1698551;84;21050;-72
2022/01/03 07:33:08;;;;;;;9.70;5.07;;;;;;;-1.77;100.00;97631.45;1698185;84;21025;-69
2022/01/03 07:35:36;;;;;;;8.00;4.90;;;;;;;-1.70;100.00;97627.67;1678899;84;21443;-70
2022/01/03 07:38:03;;;;;;;5.93;4.30;;;;;;;-1.64;100.00;97622.28;1698514;84;21046;-70
2022/01/03 07:40:31;;;;;;;8.37;4.60;;;;;;;-1.59;100.00;97624.80;1698812;84;21563;-68
2022/01/03 07:42:59;;;;;;;9.17;5.30;;;;;;;-1.57;100.00;97618.03;1678530;84;21085;-70
2022/01/03 07:45:26;;;;;;;7.77;4.80;;;;;;;-1.57;100.00;97620.18;1698462;84;21061;-71
2022/01/03 07:47:53;;;;;;;7.97;4.73;;;;;;;-1.57;100.00;97599.48;1678557;84;21026;-71
2022/01/03 07:50:20;;;;;;;8.13;4.80;;;;;;;-1.54;100.00;97596.50;1698567;84;21003;-70
2022/01/03 07:52:48;;;;;;;8.53;5.23;;;;;;;-1.49;100.00;97592.07;1698378;84;21015;-69
2022/01/03 07:55:15;;;;;;;7.93;4.63;;;;;;;-1.45;100.00;97584.99;1698458;84;21081;-69
2022/01/03 07:57:42;;;;;;;9.23;5.13;;;;;;;-1.41;100.00;97570.94;1698664;83;21010;-70
2022/01/03 08:00:14;;;;;;;7.17;5.20;;;;;;;-1.38;100.00;97578.55;1678768;84;21093;-70
2022/01/03 08:02:41;;;;;;;10.70;4.57;;;;;;;-1.35;100.00;97549.94;1641767;86;21030;-71
2022/01/03 08:05:10;;;;;;;13.83;6.23;;;;;;;-1.30;100.00;97561.38;1620071;89;21074;-69
2022/01/03 08:07:37;;;;;;;11.97;5.57;;;;;;;-1.26;100.00;97534.88;1620945;85;21047;-71
2022/01/03 08:10:05;;;;;;;7.03;4.50;;;;;;;-1.24;100.00;97538.23;1648475;86;21047;-69
2022/01/03 08:12:39;;;;;;;8.57;4.97;;;;;;;-1.22;100.00;97536.25;1671191;86;21142;-70
2022/01/03 08:15:08;;;;;;;14.43;6.23;;;;;;;-1.18;100.00;97534.11;1648542;86;21504;-71
2022/01/03 08:17:37;;;;;;;15.53;7.03;;;;;;;-1.13;100.00;97519.88;1670891;86;21259;-72
2022/01/03 08:20:05;;;;;;;19.17;8.57;;;;;;;-1.07;100.00;97507.80;1671113;86;21626;-70
2022/01/03 08:22:33;;;;;;;11.37;6.10;;;;;;;-1.01;100.00;97492.09;1671203;86;21043;-72
2022/01/03 08:25:00;;;;;;;11.33;5.57;;;;;;;-0.93;100.00;97491.78;1675119;85;21074;-72
2022/01/03 08:27:27;;;;;;;11.50;5.23;;;;;;;-0.88;100.00;97470.40;1667628;85;21582;-72
2022/01/03 08:29:56;;;;;;;8.53;5.10;;;;;;;-0.82;100.00;97455.66;1667799;85;21543;-72
2022/01/03 08:32:25;;;;;;;9.67;5.07;;;;;;;-0.79;100.00;97458.81;1690718;85;21007;-71
2022/01/03 08:34:51;;;;;;;9.00;5.00;;;;;;;-0.74;100.00;97442.89;1667662;85;21007;-69
2022/01/03 08:37:19;;;;;;;9.17;5.13;;;;;;;-0.72;100.00;97429.80;1690608;85;21511;-70
2022/01/03 08:39:46;;;;;;;9.10;5.07;;;;;;;-0.70;100.00;97437.10;1690866;85;21107;-73
2022/01/03 08:42:13;;;;;;;12.73;5.50;;;;;;;-0.67;100.00;97425.34;1691062;85;21038;-69
2022/01/03 08:44:40;;;;;;;9.77;5.53;;;;;;;-0.64;100.00;97425.84;1668854;85;21559;-70
2022/01/03 08:47:07;;;;;;;10.90;5.33;;;;;;;-0.61;100.00;97427.33;1667472;85;21129;-73
2022/01/03 08:49:34;;;;;;;10.40;5.30;;;;;;;-0.54;100.00;97414.23;1667605;85;21186;-69
2022/01/03 08:52:02;;;;;;;11.50;5.53;;;;;;;-0.51;100.00;97412.55;1690770;85;21042;-68
2022/01/03 08:54:29;;;;;;;9.13;5.00;;;;;;;-0.46;100.00;97384.55;1690808;85;21059;-68
2022/01/03 08:56:56;;;;;;;8.13;4.87;;;;;;;-0.42;100.00;97376.56;1667300;85;21074;-68
2022/01/03 08:59:25;;;;;;;10.23;4.93;;;;;;;-0.36;100.00;97370.27;1694799;84;21549;-71
2022/01/03 09:01:52;;;;;;;7.93;4.87;;;;;;;-0.34;100.00;97352.33;1698670;84;21072;-73
2022/01/03 09:04:19;;;;;;;10.30;5.00;;;;;;;-0.30;100.00;97344.35;1740092;81;21455;-70
2022/01/03 09:06:46;;;;;;;9.70;5.40;;;;;;;-0.26;100.00;97339.05;1741983;82;21046;-69
2022/01/03 09:09:13;;;;;;;9.87;5.33;;;;;;;-0.24;100.00;97334.40;1741843;82;20984;-70
2022/01/03 09:11:39;;;;;;;11.00;5.33;;;;;;;-0.23;100.00;97323.61;1741934;82;20977;-70
2022/01/03 09:14:06;;;;;;;9.90;5.47;;;;;;;-0.21;100.00;97316.30;1741705;82;21477;-70
2022/01/03 09:16:35;;;;;;;9.27;5.13;;;;;;;-0.18;100.00;97305.82;1741710;82;21126;-69
2022/01/03 09:19:02;;;;;;;9.27;5.03;;;;;;;-0.16;100.00;97309.64;1752552;81;21000;-71
2022/01/03 09:21:44;;;;;;;9.83;5.47;;;;;;;-0.13;100.00;97306.65;1752313;82;20993;-69
2022/01/03 09:24:30;;;;;;;9.07;5.07;;;;;;;-0.13;100.00;97280.91;1752541;82;21493;-69
2022/01/03 09:29:38;;;;;;;7.03;4.93;;;;;;;-0.08;100.00;97268.45;1750007;82;21493;-69
2022/01/03 09:32:06;;;;;;;7.93;4.63;;;;;;;-0.08;100.00;97267.94;1749838;82;21028;-70
2022/01/03 09:34:36;;;;;;;9.60;5.10;;;;;;;-0.07;100.00;97269.61;1738755;82;21664;-71
2022/01/03 09:37:05;;;;;;;9.53;5.63;;;;;;;-0.06;100.00;97246.52;1749770;82;21509;-70
2022/01/03 09:39:32;;;;;;;10.07;5.37;;;;;;;-0.05;100.00;97229.59;1749565;82;21067;-70
2022/01/03 09:42:07;;;;;;;8.67;5.47;;;;;;;-0.03;100.00;97210.33;1749662;81;21037;-71
2022/01/03 09:44:34;;;;;;;11.57;5.87;;;;;;;0.01;100.00;97215.61;1739316;82;21067;-70
2022/01/03 09:47:05;;;;;;;15.13;6.40;;;;;;;0.06;100.00;97183.22;1749774;82;21012;-70
2022/01/03 09:49:36;;;;;;;12.63;6.50;;;;;;;0.09;100.00;97181.52;1714613;82;21571;-72
2022/01/03 09:52:06;;;;;;;9.73;5.37;;;;;;;0.14;100.00;97176.51;1739091;81;21540;-70
2022/01/03 09:54:35;;;;;;;8.77;5.53;;;;;;;0.17;100.00;97158.38;1749575;81;21165;-71
2022/01/03 09:57:04;;;;;;;8.73;5.40;;;;;;;0.21;100.00;97160.70;1749531;82;21044;-71
2022/01/03 09:59:33;;;;;;;6.93;4.97;;;;;;;0.23;100.00;97136.95;1749929;81;21048;-71
2022/01/03 10:02:01;;;;;;;8.70;5.20;;;;;;;0.25;100.00;97132.76;1739460;81;21481;-71
2022/01/03 10:04:28;;;;;;;11.00;6.20;;;;;;;0.26;100.00;97123.28;1748049;81;21026;-72
2022/01/03 10:06:55;;;;;;;11.53;6.33;;;;;;;0.29;100.00;97107.50;1727587;82;21058;-73
2022/01/03 10:09:24;;;;;;;12.77;7.47;;;;;;;0.30;100.00;97098.50;1749317;82;21051;-73
2022/01/03 10:11:51;;;;;;;22.87;10.70;;;;;;;0.34;100.00;97101.16;1739345;82;21047;-72
2022/01/03 10:14:20;;;;;;;19.10;8.97;;;;;;;0.35;100.00;97095.66;1739238;82;21001;-70
2022/01/03 10:16:49;;;;;;;17.10;8.27;;;;;;;0.39;100.00;97093.47;1749763;81;21556;-69
2022/01/03 10:19:18;;;;;;;23.80;9.37;;;;;;;0.44;100.00;97085.76;1739331;82;21028;-71
2022/01/03 10:21:48;;;;;;;26.97;11.73;;;;;;;0.48;100.00;97067.14;1749664;81;21126;-70
2022/01/03 10:24:16;;;;;;;22.40;10.40;;;;;;;0.53;100.00;97051.47;1739159;81;21040;-72
2022/01/03 10:26:53;;;;;;;22.13;9.70;;;;;;;0.57;100.00;97034.66;1755618;81;21028;-73
2022/01/03 10:29:22;;;;;;;26.20;12.97;;;;;;;0.60;100.00;97035.59;1756353;82;21063;-72
2022/01/03 10:31:52;;;;;;;27.40;12.10;;;;;;;0.62;100.00;97023.45;1773096;80;20978;-74
2022/01/03 10:34:22;;;;;;;14.07;7.33;;;;;;;0.63;100.00;97007.83;1786919;80;21013;-73
2022/01/03 10:36:49;;;;;;;10.07;5.83;;;;;;;0.62;100.00;96995.05;1758327;80;21018;-73
2022/01/03 10:39:19;;;;;;;8.27;5.33;;;;;;;0.64;100.00;96986.38;1786772;80;21013;-74
2022/01/03 10:42:10;;;;;;;9.80;5.50;;;;;;;0.66;100.00;96985.69;1629667;87;21109;-73
2022/01/03 10:44:40;;;;;;;11.37;6.17;;;;;;;0.68;100.00;96978.86;1628946;88;21038;-72
2022/01/03 10:47:13;;;;;;;11.10;5.97;;;;;;;0.68;100.00;96973.54;1606623;88;21030;-72
2022/01/03 10:49:43;;;;;;;10.20;5.67;;;;;;;0.67;100.00;96967.89;1606557;88;21094;-73
2022/01/03 10:52:18;;;;;;;11.53;6.07;;;;;;;0.68;100.00;96958.41;1628225;88;21046;-75
2022/01/03 10:55:06;;;;;;;15.83;8.00;;;;;;;0.69;100.00;96942.78;1606543;88;21069;-72
2022/01/03 10:57:57;;;;;;;24.87;11.33;;;;;;;0.70;100.00;96942.27;1628215;88;21085;-74
2022/01/03 11:00:33;;;;;;;18.30;8.30;;;;;;;0.71;100.00;96935.44;1627633;88;21161;-74
2022/01/03 11:05:57;;;;;;;31.10;13.73;;;;;;;0.68;100.00;96918.51;1605042;89;21605;-72
2022/01/03 11:11:13;;;;;;;31.03;12.27;;;;;;;0.67;100.00;96900.89;1572254;90;21014;-75
2022/01/03 11:13:44;;;;;;;35.50;17.20;;;;;;;0.67;100.00;96904.88;1592667;89;21165;-75
2022/01/03 11:16:12;;;;;;;23.87;9.07;;;;;;;0.67;100.00;96903.55;1592899;90;20994;-70
2022/01/03 11:18:47;;;;;;;15.53;7.47;;;;;;;0.67;100.00;96887.59;1592560;90;21030;-72
2022/01/03 11:21:23;;;;;;;18.00;9.63;;;;;;;0.66;100.00;96884.63;1592077;90;21058;-70
2022/01/03 11:24:10;;;;;;;13.43;7.17;;;;;;;0.69;100.00;96885.60;1466245;97;21148;-73
2022/01/03 11:26:47;;;;;;;14.87;8.10;;;;;;;0.72;100.00;96881.22;1465839;94;21438;-72
2022/01/03 11:29:11;;;;;;;12.43;6.87;;;;;;;0.77;100.00;96879.34;1480753;97;21106;-74
2022/01/03 11:31:40;;;;;;;11.03;6.13;;;;;;;0.80;100.00;96871.00;1483173;97;21595;-73
2022/01/03 11:34:08;;;;;;;9.97;6.13;;;;;;;0.82;100.00;96860.98;1483365;97;21134;-74
2022/01/03 11:36:36;;;;;;;9.50;5.00;;;;;;;0.82;100.00;96855.67;1483247;97;21169;-74
2022/01/03 11:39:10;;;;;;;11.30;6.70;;;;;;;0.85;100.00;96843.81;1509511;93;21090;-73
2022/01/03 11:41:42;;;;;;;12.27;6.43;;;;;;;0.84;100.00;96835.02;1507551;94;21183;-72
2022/01/03 11:44:12;;;;;;;10.17;6.00;;;;;;;0.85;100.00;96842.00;1544043;93;21131;-74
2022/01/03 11:46:40;;;;;;;14.53;6.70;;;;;;;0.84;100.00;96836.35;1527087;93;21205;-73
2022/01/03 11:49:10;;;;;;;10.40;6.70;;;;;;;0.85;100.00;96832.70;1546895;93;21086;-75
2022/01/03 11:51:37;;;;;;;13.77;7.20;;;;;;;0.87;100.00;96816.55;1527194;93;21083;-72
2022/01/03 11:54:06;;;;;;;13.53;6.77;;;;;;;0.88;100.00;96820.84;1546663;93;21043;-75